createdAt,value
2023-04-21T00:04:07.630Z,10.77
2023-04-21T00:09:11.473Z,7.80
2023-04-21T00:14:14.551Z,21.50
2023-04-21T00:19:18.247Z,8.95
2023-04-21T00:24:21.179Z,12.05
2023-04-21T00:29:23.961Z,16.17
2023-04-21T00:34:26.834Z,14.70
2023-04-21T00:39:29.497Z,12.57
2023-04-21T00:44:32.339Z,10.40
2023-04-21T00:49:35.319Z,13.93
2023-04-21T00:54:38.364Z,14.68
2023-04-21T00:59:41.315Z,18.00
2023-04-21T01:04:46.270Z,22.20
2023-04-21T01:09:48.916Z,28.30
2023-04-21T01:14:51.687Z,15.57
2023-04-21T01:19:57.912Z,14.30
2023-04-21T01:25:01.795Z,14.52
2023-04-21T01:30:07.856Z,17.13
2023-04-21T01:35:11.373Z,15.80
2023-04-21T01:40:15.124Z,21.05
2023-04-21T01:45:18.066Z,14.60
2023-04-21T01:50:20.897Z,16.23
2023-04-21T01:55:23.746Z,14.40
2023-04-21T02:00:27.102Z,16.30
2023-04-21T02:05:29.845Z,18.90
2023-04-21T02:10:32.646Z,27.45
2023-04-21T02:15:35.423Z,21.35
2023-04-21T02:20:38.292Z,12.43
2023-04-21T02:25:42.632Z,18.77
2023-04-21T02:30:45.591Z,18.98
2023-04-21T02:35:48.432Z,17.83
2023-04-21T02:40:51.430Z,11.95
2023-04-21T02:45:55.301Z,15.52
2023-04-21T02:50:58.213Z,13.20
2023-04-21T02:56:02.917Z,14.32
2023-04-21T03:01:06.857Z,10.15
2023-04-21T03:06:10.794Z,10.45
2023-04-21T03:11:15.190Z,10.70
2023-04-21T03:16:18.389Z,16.65
2023-04-21T03:21:21.155Z,14.13
2023-04-21T03:26:24.458Z,16.13
2023-04-21T03:31:27.379Z,17.65
2023-04-21T03:36:30.258Z,11.88
2023-04-21T03:41:34.319Z,11.25
2023-04-21T03:46:37.232Z,18.55
2023-04-21T03:51:40.012Z,15.85
2023-04-21T03:56:42.829Z,16.05
2023-04-21T04:01:45.896Z,13.68
2023-04-21T04:06:48.785Z,13.20
2023-04-21T04:11:51.541Z,16.67
2023-04-21T04:16:54.322Z,13.70
2023-04-21T04:21:59.256Z,12.65
2023-04-21T04:27:03.746Z,13.38
2023-04-21T04:32:07.076Z,15.77
2023-04-21T04:37:11.489Z,12.10
2023-04-21T04:42:14.797Z,14.35
2023-04-21T04:47:17.819Z,12.82
2023-04-21T04:52:20.607Z,14.18
2023-04-21T04:57:23.397Z,9.43
2023-04-21T05:02:26.337Z,11.98
2023-04-21T05:07:29.297Z,13.57
2023-04-21T05:12:34.916Z,13.25
2023-04-21T05:22:41.103Z,10.50
2023-04-21T05:27:44.083Z,18.23
2023-04-21T05:32:46.807Z,15.05
2023-04-21T05:37:49.695Z,11.57
2023-04-21T05:42:52.496Z,13.93
2023-04-21T05:47:55.592Z,17.35
2023-04-21T05:52:58.527Z,10.98
2023-04-21T05:58:01.257Z,13.18
2023-04-21T06:03:04.441Z,11.38
2023-04-21T06:08:07.528Z,8.45
2023-04-21T06:13:10.202Z,11.15
2023-04-21T06:18:12.938Z,8.27
2023-04-21T06:23:15.773Z,10.13
2023-04-21T06:28:18.659Z,7.53
2023-04-21T06:33:21.431Z,8.38
2023-04-21T06:38:24.490Z,11.32
2023-04-21T06:43:27.282Z,8.10
2023-04-21T06:48:30.649Z,8.85
2023-04-21T06:53:33.443Z,4.95
2023-04-21T06:58:36.268Z,7.10
2023-04-21T07:03:39.087Z,4.93
2023-04-21T07:08:42.155Z,5.03
2023-04-21T07:13:44.830Z,9.07
2023-04-21T07:18:47.686Z,5.95
2023-04-21T07:23:50.687Z,13.00
2023-04-21T07:28:53.789Z,7.75
2023-04-21T07:33:56.682Z,6.32
2023-04-21T07:38:59.413Z,5.53
2023-04-21T07:44:02.094Z,7.78
2023-04-21T07:49:04.878Z,6.68
2023-04-21T07:54:07.647Z,6.05
2023-04-21T07:59:10.644Z,7.97
2023-04-21T08:04:13.580Z,6.10
2023-04-21T08:09:16.472Z,5.70
2023-04-21T08:14:19.453Z,7.22
2023-04-21T08:19:22.731Z,7.80
2023-04-21T08:24:25.863Z,10.73
2023-04-21T08:29:29.150Z,38.75
2023-04-21T08:34:31.921Z,6.28
2023-04-21T08:39:34.683Z,6.97
2023-04-21T08:44:37.958Z,6.03
2023-04-21T08:49:43.005Z,7.28
2023-04-21T08:54:47.832Z,5.32
2023-04-21T08:59:50.712Z,7.73
2023-04-21T09:04:56.056Z,6.07
2023-04-21T09:10:01.573Z,7.47
2023-04-21T09:15:07.611Z,10.88
2023-04-21T09:20:16.205Z,8.50
2023-04-21T09:25:22.767Z,6.80
2023-04-21T09:30:26.033Z,9.32
2023-04-21T09:35:30.433Z,5.45
2023-04-21T09:40:35.040Z,8.35
2023-04-21T09:45:40.490Z,7.32
2023-04-21T09:51:11.428Z,9.23
2023-04-21T09:56:10.568Z,10.50
2023-04-21T10:01:14.792Z,5.32
2023-04-21T10:06:17.712Z,11.98
2023-04-21T10:11:20.687Z,7.88
2023-04-21T10:16:23.682Z,6.50
2023-04-21T10:21:27.264Z,9.32
2023-04-21T10:26:35.941Z,9.10
2023-04-21T10:31:54.783Z,19.85
2023-04-21T10:37:00.237Z,7.22
2023-04-21T10:42:21.214Z,6.57
2023-04-21T10:47:41.752Z,18.90
2023-04-21T10:52:46.604Z,5.68
2023-04-21T10:57:49.743Z,10.70
2023-04-21T11:03:01.504Z,8.25
2023-04-21T11:08:06.115Z,10.60
2023-04-21T11:13:09.050Z,7.88
2023-04-21T11:18:11.898Z,9.07
2023-04-21T11:23:19.235Z,11.43
2023-04-21T11:28:23.253Z,7.38
2023-04-21T11:33:29.715Z,8.85
2023-04-21T11:38:42.202Z,7.97
2023-04-21T11:43:46.611Z,11.57
2023-04-21T11:49:02.395Z,10.50
2023-04-21T11:54:07.145Z,10.68
2023-04-21T11:59:14.750Z,11.67
2023-04-21T12:04:24.183Z,12.30
2023-04-21T12:09:27.789Z,14.18
2023-04-21T12:14:33.874Z,10.63
2023-04-21T12:19:42.624Z,14.68
2023-04-21T12:24:46.336Z,12.15
2023-04-21T12:29:49.225Z,13.05
2023-04-21T12:34:51.980Z,17.00
2023-04-21T12:39:54.779Z,13.05
2023-04-21T12:44:57.498Z,15.15
2023-04-21T12:50:00.336Z,11.45
2023-04-21T12:55:03.161Z,22.80
2023-04-21T13:00:09.289Z,12.90
2023-04-21T13:05:13.869Z,15.93
2023-04-21T13:10:16.668Z,14.02
2023-04-21T13:15:19.456Z,19.95
2023-04-21T13:20:22.745Z,17.20
2023-04-21T13:25:31.417Z,19.05
2023-04-21T13:30:35.473Z,13.57
2023-04-21T13:35:38.873Z,17.65
2023-04-21T13:40:41.686Z,18.13
2023-04-21T13:45:44.505Z,15.48
2023-04-21T13:50:47.688Z,19.65
2023-04-21T13:55:50.582Z,18.42
2023-04-21T14:00:53.314Z,19.52
2023-04-21T14:05:56.925Z,17.65
2023-04-21T14:11:01.324Z,18.50
2023-04-21T14:16:04.420Z,20.88
2023-04-21T14:21:07.273Z,13.55
2023-04-21T14:26:10.180Z,17.90
2023-04-21T14:31:13.067Z,15.65
2023-04-21T14:36:15.983Z,20.95
2023-04-21T14:41:19.178Z,23.92
2023-04-21T14:46:22.342Z,21.70
2023-04-21T14:51:25.150Z,17.98
2023-04-21T14:56:28.146Z,23.15
2023-04-21T15:01:31.178Z,30.88
2023-04-21T15:06:34.082Z,27.20
2023-04-21T15:11:36.835Z,27.65
2023-04-21T15:16:39.815Z,25.65
2023-04-21T15:21:42.746Z,26.05
2023-04-21T15:26:46.813Z,26.50
2023-04-21T15:31:49.604Z,28.75
2023-04-21T15:36:52.560Z,20.13
2023-04-21T15:41:55.542Z,25.60
2023-04-21T15:46:58.475Z,26.10
2023-04-21T15:52:03.113Z,26.20
2023-04-21T15:57:06.380Z,30.50
2023-04-21T16:02:09.826Z,31.85
2023-04-21T16:07:14.441Z,25.95
2023-04-21T16:12:18.193Z,24.92
2023-04-21T16:17:21.698Z,21.80
2023-04-21T16:27:29.014Z,22.00
2023-04-21T16:32:31.883Z,18.67
2023-04-21T16:37:37.471Z,16.75
2023-04-21T16:42:40.175Z,21.27
2023-04-21T16:47:43.375Z,21.75
2023-04-21T16:52:46.568Z,22.75
2023-04-21T16:57:49.479Z,20.45
2023-04-21T17:02:52.490Z,25.33
2023-04-21T17:07:55.449Z,19.13
2023-04-21T17:12:58.209Z,21.15
2023-04-21T17:18:01.597Z,18.27
2023-04-21T17:23:04.600Z,26.55
2023-04-21T17:28:07.490Z,21.95
2023-04-21T17:33:33.036Z,15.77
2023-04-21T17:38:36.001Z,13.90
2023-04-21T17:43:38.904Z,21.42
2023-04-21T17:48:41.744Z,13.55
2023-04-21T17:53:44.681Z,20.05
2023-04-21T17:58:47.444Z,15.43
2023-04-21T18:03:50.484Z,14.15
2023-04-21T18:08:53.387Z,14.40
2023-04-21T18:13:56.590Z,18.55
2023-04-21T18:18:59.450Z,20.25
2023-04-21T18:24:02.317Z,17.05
2023-04-21T18:29:05.214Z,16.73
2023-04-21T18:34:09.101Z,16.58
2023-04-21T18:39:11.935Z,12.07
2023-04-21T18:44:16.500Z,12.38
2023-04-21T18:49:19.390Z,15.70
2023-04-21T18:54:22.202Z,15.52
2023-04-21T18:59:25.819Z,11.95
2023-04-21T19:04:28.715Z,14.90
2023-04-21T19:09:31.751Z,13.40
2023-04-21T19:14:45.468Z,15.15
2023-04-21T19:19:49.934Z,13.90
2023-04-21T19:24:56.259Z,11.35
2023-04-21T19:29:59.307Z,13.50
2023-04-21T19:35:02.120Z,14.25
2023-04-21T19:40:08.366Z,11.45
2023-04-21T19:45:11.436Z,12.50
2023-04-21T19:50:14.179Z,12.77
2023-04-21T19:55:17.443Z,14.95
2023-04-21T20:00:20.351Z,12.00
2023-04-21T20:05:23.125Z,9.48
2023-04-21T20:10:26.524Z,10.75
2023-04-21T20:15:29.264Z,10.18
2023-04-21T20:20:32.088Z,11.95
2023-04-21T20:25:34.913Z,11.73
2023-04-21T20:30:37.736Z,15.05
2023-04-21T20:35:44.254Z,9.48
2023-04-21T20:40:50.448Z,18.00
2023-04-21T20:45:53.870Z,20.73
2023-04-21T20:50:56.834Z,16.52
2023-04-21T20:56:00.151Z,13.85
2023-04-21T21:01:03.195Z,14.07
2023-04-21T21:06:06.209Z,21.83
2023-04-21T21:11:08.900Z,21.58
2023-04-21T21:16:11.687Z,17.48
2023-04-21T21:21:14.387Z,13.93
2023-04-21T21:26:17.985Z,13.52
2023-04-21T21:31:20.969Z,15.25
2023-04-21T21:36:23.673Z,19.40
2023-04-21T21:41:26.528Z,16.50
2023-04-21T21:46:29.350Z,18.92
2023-04-21T21:51:32.818Z,15.48
2023-04-21T21:56:36.839Z,12.48
2023-04-21T22:01:39.915Z,16.67
2023-04-21T22:06:42.786Z,11.88
2023-04-21T22:11:46.498Z,15.90
2023-04-21T22:16:50.914Z,12.35
2023-04-21T22:21:53.694Z,11.48
2023-04-21T22:26:57.462Z,11.40
2023-04-21T22:32:00.877Z,10.70
2023-04-21T22:37:05.938Z,16.95
2023-04-21T22:42:08.751Z,17.48
2023-04-21T22:47:12.470Z,10.57
2023-04-21T22:52:15.463Z,12.77
2023-04-21T22:57:18.419Z,10.95
2023-04-21T23:02:21.959Z,11.82
2023-04-21T23:07:24.913Z,19.15
2023-04-21T23:12:27.814Z,11.05
2023-04-21T23:17:31.007Z,18.42
2023-04-21T23:22:33.744Z,11.95
2023-04-21T23:27:36.573Z,13.43
2023-04-21T23:32:39.581Z,16.15
2023-04-21T23:37:42.468Z,13.73
2023-04-21T23:42:47.505Z,13.60
2023-04-21T23:47:50.784Z,14.02
2023-04-21T23:52:53.681Z,15.73
2023-04-21T23:57:56.443Z,14.27
